INFORMAÇÕES METEOROLÓGICAS
METAR FOR KSEA
ADDS - METARS form results

(1206 UTC 24 April 2018)
Data provider http://aviationweather.gov/adds/metars/
 
METAR text: KSEA 241153Z 01011KT 10SM CLR 11/02 A3020 RMK AO2 SLP232 T01110017 10161 20094 56005
Conditions at: KSEA (SEATTLE/METRO , WA, US) observed 1153 UTC 24 April 2018
Temperature: 11.1°C (52°F)
Dewpoint: 1.7°C (35°F) [RH = 52%]
Pressure (altimeter): 30.20 inches Hg (1022.8 mb)
[Sea-level pressure: 1023.2 mb]
Winds: from the N (10 degrees) at 13 MPH (11 knots; 5.7 m/s)
Visibility: 10 or more miles (16+ km)
Ceiling: at least 12,000 feet AGL
Clouds: sky clear below 12,000 feet AGL
Weather: no significant weather observed at this time

Forecast for: KSEA (SEATTLE/METRO , WA, US)
Text: KSEA 241133Z 2412/2518 03009KT P6SM SCT200
Forecast period: 1200 to 2000 UTC 24 April 2018
Forecast type: FROM: standard forecast or significant change
Winds: from the NNE (30 degrees) at 10 MPH (9 knots; 4.7 m/s)
Visibility: 6 or more miles (10+ km)
Clouds: scattered clouds at 20000 feet AGL
Weather: no significant weather forecast for this period
Forecast for: KSEA (SEATTLE/METRO , WA, US)
Text: KSEA 241133Z 2412/2518 03009KT P6SM SCT200
Forecast period: 1200 to 2000 UTC 24 April 2018
Forecast type: FROM: standard forecast or significant change
Winds: from the NNE (30 degrees) at 10 MPH (9 knots; 4.7 m/s)
Visibility: 6 or more miles (10+ km)
Clouds: scattered clouds at 20000 feet AGL
Weather: no significant weather forecast for this period
Forecast for: KSEA (SEATTLE/METRO , WA, US)
Text: KSEA 241133Z 2412/2518 03009KT P6SM SCT200
Forecast period: 2000 UTC 24 April 2018 to 0900 UTC 25 April 2018
Forecast type: FROM: standard forecast or significant change
Winds: from the N (360 degrees) at 13 MPH (11 knots; 5.7 m/s)
Visibility: 6 or more miles (10+ km)
Clouds: scattered clouds at 20000 feet AGL
Weather: no significant weather forecast for this period
Forecast for: KSEA (SEATTLE/METRO , WA, US)
Text: KSEA 241133Z 2412/2518 03009KT P6SM SCT200
Forecast period: 2000 UTC 24 April 2018 to 0900 UTC 25 April 2018
Forecast type: FROM: standard forecast or significant change
Winds: from the N (360 degrees) at 13 MPH (11 knots; 5.7 m/s)
Visibility: 6 or more miles (10+ km)
Clouds: scattered clouds at 20000 feet AGL
Weather: no significant weather forecast for this period
Forecast for: KSEA (SEATTLE/METRO , WA, US)
Text: KSEA 241133Z 2412/2518 03009KT P6SM SCT200
Forecast period: 0900 to 1800 UTC 25 April 2018
Forecast type: FROM: standard forecast or significant change
Winds: from the NNE (30 degrees) at 12 MPH (10 knots; 5.2 m/s)
Visibility: 6 or more miles (10+ km)
Clouds: clear skies
Weather: no significant weather forecast for this period
Forecast for: KSEA (SEATTLE/METRO , WA, US)
Text: KSEA 241133Z 2412/2518 03009KT P6SM SCT200
Forecast period: 0900 to 1800 UTC 25 April 2018
Forecast type: FROM: standard forecast or significant change
Winds: from the NNE (30 degrees) at 12 MPH (10 knots; 5.2 m/s)
Visibility: 6 or more miles (10+ km)
Clouds: clear skies
Weather: no significant weather forecast for this period

 MAPA DO AEROPORTO

 INFORMAÇÕES DA PISTA
Pista 16C Tamanho da pista 9426 ft Largura da pista 150 ft
Elevação da pista 430 ft Ranhura da pista 0 ft Proa da pista 180
Pista 34C Tamanho da pista 9426 ft Largura da pista 150 ft
Elevação da pista 363 ft Ranhura da pista 0 ft Proa da pista 0
Pista 16L Tamanho da pista 11900 ft Largura da pista 150 ft
Elevação da pista 432 ft Ranhura da pista 0 ft Proa da pista 180
Pista 34R Tamanho da pista 11900 ft Largura da pista 150 ft
Elevação da pista 347 ft Ranhura da pista 0 ft Proa da pista 360
Pista 16R Tamanho da pista 9426 ft Largura da pista 150 ft
Elevação da pista 430 ft Ranhura da pista 0 ft Proa da pista 180
Pista 34L Tamanho da pista 9426 ft Largura da pista 150 ft
Elevação da pista 363 ft Ranhura da pista 0 ft Proa da pista 360

 FREQUÊNCIAS DO AEROPORTO
Tipo A/D Nome APP/DEP Frequência 119.2 MHZ
Tipo ATIS Nome ATIS Frequência 118 MHZ
Tipo CLD Nome CLNC DEL Frequência 128 MHZ
Tipo GND Nome GND Frequência 121.7 MHZ
Tipo TWR Nome TWR Frequência 119.9 MHZ
Tipo UNIC Nome UNICOM Frequência 122.95 MHZ

 AUXÍLIOS DE NAVEGAÇÃO PRÓXIMOS AO AEROPORTO
Tipo NDB Nome Dondo Frequência 224 KHZ
Tipo VORTAC Nome Seattle Frequência 116800 KHZ
Tipo NDB Nome Parkk Frequência 281 KHZ





Powered by Virtual Airlines Manager [v2.6.2]